createdAt,value
2023-05-10T00:01:06.610Z,12.40
2023-05-10T00:03:33.093Z,12.40
2023-05-10T00:05:59.701Z,12.39
2023-05-10T00:08:26.197Z,12.42
2023-05-10T00:10:53.627Z,12.44
2023-05-10T00:13:20.368Z,12.44
2023-05-10T00:15:46.845Z,12.43
2023-05-10T00:18:13.297Z,12.44
2023-05-10T00:20:39.738Z,12.44
2023-05-10T00:23:06.215Z,12.43
2023-05-10T00:25:32.703Z,12.44
2023-05-10T00:27:59.477Z,12.46
2023-05-10T00:30:26.009Z,12.47
2023-05-10T00:32:52.771Z,12.46
2023-05-10T00:35:19.391Z,12.46
2023-05-10T00:37:46.151Z,12.47
2023-05-10T00:40:12.920Z,12.51
2023-05-10T00:42:40.342Z,12.53
2023-05-10T00:45:08.197Z,12.53
2023-05-10T00:47:35.916Z,12.52
2023-05-10T00:50:02.900Z,12.53
2023-05-10T00:52:31.055Z,12.54
2023-05-10T00:54:59.239Z,12.54
2023-05-10T00:57:26.070Z,12.53
2023-05-10T00:59:52.844Z,12.47
2023-05-10T01:02:19.377Z,12.49
2023-05-10T01:04:46.006Z,12.45
2023-05-10T01:07:12.635Z,12.44
2023-05-10T01:09:39.400Z,12.42
2023-05-10T01:12:07.925Z,12.44
2023-05-10T01:14:37.090Z,12.41
2023-05-10T01:17:04.775Z,12.41
2023-05-10T01:19:32.735Z,12.43
2023-05-10T01:22:31.153Z,12.40
2023-05-10T01:25:20.913Z,12.40
2023-05-10T01:28:17.908Z,12.44
2023-05-10T01:31:19.341Z,12.44
2023-05-10T01:34:10.173Z,12.42
2023-05-10T01:36:46.695Z,12.44
2023-05-10T01:39:32.703Z,12.42
2023-05-10T01:42:07.241Z,12.36
2023-05-10T01:44:42.015Z,12.34
2023-05-10T01:47:13.763Z,12.36
2023-05-10T01:49:47.380Z,12.37
2023-05-10T01:52:18.577Z,12.40
2023-05-10T01:54:51.144Z,12.40
2023-05-10T01:57:20.983Z,12.40
2023-05-10T01:59:51.801Z,12.36
2023-05-10T02:02:22.025Z,12.34
2023-05-10T02:04:51.889Z,12.28
2023-05-10T02:07:19.374Z,12.26
2023-05-10T02:09:49.787Z,12.25
2023-05-10T02:12:17.949Z,12.26
2023-05-10T02:14:45.852Z,12.29
2023-05-10T02:17:13.044Z,12.31
2023-05-10T02:19:42.971Z,12.30
2023-05-10T02:22:10.668Z,12.33
2023-05-10T02:24:39.401Z,12.32
2023-05-10T02:27:07.124Z,12.31
2023-05-10T02:29:34.565Z,12.35
2023-05-10T02:32:02.560Z,12.35
2023-05-10T02:34:30.970Z,12.33
2023-05-10T02:36:57.950Z,12.31
2023-05-10T02:39:26.394Z,12.33
2023-05-10T02:41:54.401Z,12.35
2023-05-10T02:44:21.515Z,12.32
2023-05-10T02:46:48.887Z,12.31
2023-05-10T02:49:16.334Z,12.31
2023-05-10T02:51:48.533Z,12.29
2023-05-10T02:54:28.476Z,12.26
2023-05-10T02:57:01.432Z,12.28
2023-05-10T02:59:28.668Z,12.24
2023-05-10T03:01:55.194Z,12.21
2023-05-10T03:04:21.659Z,12.13
2023-05-10T03:06:48.825Z,12.14
2023-05-10T03:09:16.706Z,12.14
2023-05-10T03:12:15.114Z,12.05
2023-05-10T03:14:53.817Z,12.01
2023-05-10T03:17:40.977Z,12.01
2023-05-10T03:20:11.289Z,11.98
2023-05-10T03:22:41.945Z,11.96
2023-05-10T03:25:11.365Z,11.93
2023-05-10T03:27:42.537Z,11.95
2023-05-10T03:30:11.520Z,11.94
2023-05-10T03:32:38.147Z,11.92
2023-05-10T03:35:09.609Z,11.92
2023-05-10T03:37:37.135Z,11.90
2023-05-10T03:40:04.116Z,11.92
2023-05-10T03:42:33.546Z,11.90
2023-05-10T03:45:00.190Z,11.90
2023-05-10T03:47:26.804Z,11.89
2023-05-10T03:49:53.326Z,11.91
2023-05-10T03:52:19.806Z,11.93
2023-05-10T03:54:46.301Z,11.96
2023-05-10T03:57:12.731Z,12.01
2023-05-10T03:59:39.498Z,12.02
2023-05-10T04:02:06.353Z,11.98
2023-05-10T04:04:32.857Z,11.94
2023-05-10T04:06:59.386Z,11.96
2023-05-10T04:09:26.240Z,11.95
2023-05-10T04:11:52.671Z,11.94
2023-05-10T04:14:19.203Z,11.93
2023-05-10T04:16:45.857Z,11.92
2023-05-10T04:19:12.606Z,11.90
2023-05-10T04:21:39.085Z,11.89
2023-05-10T04:24:05.804Z,11.91
2023-05-10T04:26:32.367Z,11.94
2023-05-10T04:28:58.847Z,11.94
2023-05-10T04:31:25.326Z,11.94
2023-05-10T04:33:51.894Z,11.98
2023-05-10T04:36:18.405Z,12.00
2023-05-10T04:38:44.939Z,12.00
2023-05-10T04:41:11.914Z,11.98
2023-05-10T04:43:39.004Z,11.99
2023-05-10T04:46:06.553Z,12.00
2023-05-10T04:48:33.073Z,12.01
2023-05-10T04:50:59.574Z,12.03
2023-05-10T04:53:26.083Z,12.03
2023-05-10T04:55:52.638Z,12.08
2023-05-10T04:58:19.174Z,12.09
2023-05-10T05:00:45.746Z,12.11
2023-05-10T05:03:12.316Z,12.14
2023-05-10T05:05:38.894Z,12.17
2023-05-10T05:08:05.605Z,12.19
2023-05-10T05:10:33.354Z,12.18
2023-05-10T05:12:59.919Z,12.18
2023-05-10T05:15:26.429Z,12.19
2023-05-10T05:17:53.103Z,12.18
2023-05-10T05:20:19.941Z,12.21
2023-05-10T05:22:46.429Z,12.17
2023-05-10T05:25:14.176Z,12.20
2023-05-10T05:27:40.737Z,12.23
2023-05-10T05:30:08.004Z,12.24
2023-05-10T05:32:34.826Z,12.29
2023-05-10T05:35:01.346Z,12.27
2023-05-10T05:37:27.777Z,12.28
2023-05-10T05:39:55.846Z,12.31
2023-05-10T05:42:22.414Z,12.33
2023-05-10T05:44:48.887Z,12.33
2023-05-10T05:47:15.618Z,12.33
2023-05-10T05:49:42.075Z,12.29
2023-05-10T05:52:08.551Z,12.32
2023-05-10T05:54:35.058Z,12.36
2023-05-10T05:57:01.827Z,12.32
2023-05-10T05:59:28.714Z,12.34
2023-05-10T06:01:55.680Z,12.30
2023-05-10T06:04:22.348Z,12.30
2023-05-10T06:06:48.989Z,12.32
2023-05-10T06:09:15.555Z,12.28
2023-05-10T06:11:42.011Z,12.30
2023-05-10T06:14:08.861Z,12.34
2023-05-10T06:16:35.692Z,12.35
2023-05-10T06:19:03.126Z,12.31
2023-05-10T06:21:29.819Z,12.19
2023-05-10T06:23:56.293Z,12.18
2023-05-10T06:26:22.814Z,12.19
2023-05-10T06:28:49.327Z,12.27
2023-05-10T06:31:16.115Z,12.29
2023-05-10T06:33:43.158Z,12.37
2023-05-10T06:36:09.986Z,12.51
2023-05-10T06:38:36.553Z,12.45
2023-05-10T06:41:02.975Z,12.57
2023-05-10T06:43:29.789Z,12.55
2023-05-10T06:45:56.780Z,12.61
2023-05-10T06:48:23.509Z,12.63
2023-05-10T06:50:50.411Z,12.65
2023-05-10T06:53:17.177Z,12.64
2023-05-10T06:55:43.647Z,12.58
2023-05-10T06:58:10.100Z,12.57
2023-05-10T07:00:40.116Z,12.54
2023-05-10T07:03:07.089Z,12.62
2023-05-10T07:05:33.638Z,12.65
2023-05-10T07:08:00.076Z,12.64
2023-05-10T07:10:26.588Z,12.59
2023-05-10T07:12:53.200Z,12.67
2023-05-10T07:15:20.270Z,12.66
2023-05-10T07:17:46.794Z,12.60
2023-05-10T07:20:13.809Z,12.59
2023-05-10T07:22:40.216Z,12.59
2023-05-10T07:25:07.285Z,12.62
2023-05-10T07:27:33.785Z,12.61
2023-05-10T07:30:02.531Z,12.60
2023-05-10T07:32:43.303Z,12.70
2023-05-10T07:35:09.914Z,12.80
2023-05-10T07:37:36.909Z,12.75
2023-05-10T07:40:03.625Z,12.84
2023-05-10T07:42:30.195Z,12.92
2023-05-10T07:44:56.915Z,13.05
2023-05-10T07:47:24.416Z,13.18
2023-05-10T07:49:50.987Z,13.22
2023-05-10T07:52:17.616Z,13.39
2023-05-10T07:54:44.303Z,13.41
2023-05-10T07:57:10.753Z,13.53
2023-05-10T07:59:37.386Z,13.53
2023-05-10T08:02:03.862Z,13.54
2023-05-10T08:04:30.675Z,13.51
2023-05-10T08:07:03.628Z,13.44
2023-05-10T08:09:30.281Z,13.31
2023-05-10T08:11:57.324Z,13.34
2023-05-10T08:14:23.822Z,13.33
2023-05-10T08:16:50.438Z,13.35
2023-05-10T08:19:20.063Z,13.35
2023-05-10T08:21:49.691Z,13.33
2023-05-10T08:24:16.275Z,13.32
2023-05-10T08:26:42.707Z,13.34
2023-05-10T08:29:09.162Z,13.27
2023-05-10T08:31:35.600Z,13.30
2023-05-10T08:34:02.311Z,13.45
2023-05-10T08:36:29.217Z,13.53
2023-05-10T08:38:55.896Z,13.41
2023-05-10T08:41:24.722Z,13.33
2023-05-10T08:43:51.848Z,13.24
2023-05-10T08:46:20.005Z,13.30
2023-05-10T08:48:48.986Z,13.47
2023-05-10T08:51:19.125Z,13.53
2023-05-10T08:53:46.417Z,13.64
2023-05-10T08:56:13.119Z,13.64
2023-05-10T08:58:39.691Z,13.64
2023-05-10T09:01:06.754Z,13.71
2023-05-10T09:03:33.414Z,13.93
2023-05-10T09:05:59.982Z,14.27
2023-05-10T09:08:27.324Z,14.40
2023-05-10T09:10:55.662Z,14.68
2023-05-10T09:13:23.587Z,15.06
2023-05-10T09:15:50.734Z,15.17
2023-05-10T09:18:17.601Z,15.24
2023-05-10T09:20:44.196Z,15.47
2023-05-10T09:23:10.764Z,15.51
2023-05-10T09:25:39.459Z,15.80
2023-05-10T09:28:10.213Z,16.11
2023-05-10T09:30:37.012Z,16.37
2023-05-10T09:33:03.968Z,16.44
2023-05-10T09:35:33.162Z,16.81
2023-05-10T09:38:05.790Z,17.27
2023-05-10T09:40:32.642Z,17.27
2023-05-10T09:43:04.645Z,17.54
2023-05-10T09:45:32.893Z,17.79
2023-05-10T09:48:00.678Z,17.82
2023-05-10T09:50:27.793Z,17.75
2023-05-10T09:52:56.984Z,17.76
2023-05-10T09:55:25.592Z,17.26
2023-05-10T09:58:02.805Z,16.86
2023-05-10T10:00:35.763Z,16.52
2023-05-10T10:03:02.926Z,16.20
2023-05-10T10:05:34.062Z,15.85
2023-05-10T10:08:05.286Z,15.69
2023-05-10T10:10:33.319Z,15.59
2023-05-10T10:13:00.448Z,15.56
2023-05-10T10:15:27.120Z,15.55
2023-05-10T10:17:54.680Z,15.65
2023-05-10T10:20:23.116Z,15.72
2023-05-10T10:22:50.013Z,16.03
2023-05-10T10:25:18.424Z,16.32
2023-05-10T10:27:54.215Z,16.19
2023-05-10T10:30:29.306Z,16.25
2023-05-10T10:33:27.293Z,16.07
2023-05-10T10:35:56.535Z,16.01
2023-05-10T10:38:23.707Z,15.97
2023-05-10T10:41:03.429Z,15.79
2023-05-10T10:43:30.470Z,15.75
2023-05-10T10:46:14.317Z,15.81
2023-05-10T10:48:42.783Z,15.97
2023-05-10T10:51:10.849Z,15.96
2023-05-10T10:53:39.198Z,15.80
2023-05-10T10:56:10.548Z,15.94
2023-05-10T10:58:39.389Z,16.00
2023-05-10T11:01:19.249Z,15.99
2023-05-10T11:04:04.168Z,15.88
2023-05-10T11:06:35.478Z,15.88
2023-05-10T11:09:09.767Z,15.87
2023-05-10T11:11:37.853Z,15.80
2023-05-10T11:14:06.413Z,15.58
2023-05-10T11:16:44.304Z,15.50
2023-05-10T11:19:16.172Z,15.51
2023-05-10T11:22:13.823Z,15.49
2023-05-10T11:24:40.340Z,15.32
2023-05-10T11:27:07.160Z,15.41
2023-05-10T11:29:33.642Z,15.52
2023-05-10T11:32:01.351Z,15.83
2023-05-10T11:34:31.275Z,16.20
2023-05-10T11:36:58.337Z,16.70
2023-05-10T11:39:29.394Z,17.40
2023-05-10T11:41:56.592Z,18.17
2023-05-10T11:44:23.521Z,18.68
2023-05-10T11:46:50.728Z,19.06
2023-05-10T11:49:17.204Z,19.23
2023-05-10T11:51:44.411Z,18.87
2023-05-10T11:54:12.101Z,18.63
2023-05-10T11:56:40.170Z,18.45
2023-05-10T11:59:07.396Z,18.06
2023-05-10T12:01:34.749Z,17.57
2023-05-10T12:04:02.007Z,17.30
2023-05-10T12:06:31.907Z,17.14
2023-05-10T12:08:58.816Z,17.00
2023-05-10T12:11:27.206Z,16.97
2023-05-10T12:13:54.397Z,16.90
2023-05-10T12:16:29.766Z,17.05
2023-05-10T12:19:01.610Z,17.10
2023-05-10T12:21:34.265Z,17.25
2023-05-10T12:24:03.375Z,17.34
2023-05-10T12:26:30.446Z,17.35
2023-05-10T12:29:13.306Z,17.67
2023-05-10T12:31:57.651Z,17.89
2023-05-10T12:34:26.749Z,18.11
2023-05-10T12:36:54.883Z,18.55
2023-05-10T12:39:21.299Z,18.88
2023-05-10T12:41:47.747Z,19.67
2023-05-10T12:44:15.674Z,19.90
2023-05-10T12:46:42.183Z,19.83
2023-05-10T12:49:09.764Z,19.54
2023-05-10T12:51:36.458Z,19.51
2023-05-10T12:54:03.872Z,19.34
2023-05-10T12:56:30.362Z,19.18
2023-05-10T12:58:56.819Z,19.19
2023-05-10T13:01:23.342Z,19.19
2023-05-10T13:03:52.968Z,19.04
2023-05-10T13:06:19.448Z,18.94
2023-05-10T13:08:45.866Z,18.64
2023-05-10T13:11:12.341Z,18.35
2023-05-10T13:13:38.750Z,18.11
2023-05-10T13:16:05.600Z,18.01
2023-05-10T13:18:32.135Z,17.94
2023-05-10T13:20:59.083Z,17.55
2023-05-10T13:23:25.605Z,17.04
2023-05-10T13:25:52.086Z,16.62
2023-05-10T13:28:18.483Z,16.00
2023-05-10T13:30:45.072Z,15.49
2023-05-10T13:33:11.587Z,15.13
2023-05-10T13:35:38.073Z,14.86
2023-05-10T13:38:04.509Z,14.74
2023-05-10T13:40:30.984Z,14.54
2023-05-10T13:42:57.416Z,14.43
2023-05-10T13:45:23.956Z,14.25
2023-05-10T13:47:50.785Z,14.20
2023-05-10T13:50:17.891Z,14.06
2023-05-10T13:52:44.503Z,13.99
2023-05-10T13:55:13.285Z,13.90
2023-05-10T13:57:39.723Z,13.81
2023-05-10T14:00:06.860Z,13.78
2023-05-10T14:02:35.023Z,13.73
2023-05-10T14:05:02.266Z,13.72
2023-05-10T14:07:28.655Z,13.81
2023-05-10T14:09:55.091Z,13.87
2023-05-10T14:12:21.564Z,13.88
2023-05-10T14:14:47.966Z,13.88
2023-05-10T14:17:14.511Z,13.93
2023-05-10T14:19:40.967Z,13.90
2023-05-10T14:22:07.454Z,13.86
2023-05-10T14:24:33.978Z,13.89
2023-05-10T14:27:01.078Z,13.95
2023-05-10T14:29:28.041Z,13.88
2023-05-10T14:31:56.195Z,13.89
2023-05-10T14:34:22.763Z,13.91
2023-05-10T14:36:49.255Z,13.93
2023-05-10T14:39:15.896Z,13.90
2023-05-10T14:41:43.872Z,13.86
2023-05-10T14:44:10.959Z,13.92
2023-05-10T14:46:37.784Z,13.94
2023-05-10T14:49:04.295Z,13.91
2023-05-10T14:51:30.759Z,13.96
2023-05-10T14:53:57.352Z,14.07
2023-05-10T14:56:23.805Z,14.19
2023-05-10T14:58:51.038Z,14.30
2023-05-10T15:01:18.120Z,14.42
2023-05-10T15:03:45.248Z,14.44
2023-05-10T15:06:12.672Z,14.53
2023-05-10T15:08:39.116Z,14.61
2023-05-10T15:11:05.768Z,14.64
2023-05-10T15:13:32.194Z,14.66
2023-05-10T15:15:58.702Z,14.78
2023-05-10T15:18:25.379Z,14.84
2023-05-10T15:20:52.255Z,15.05
2023-05-10T15:23:18.926Z,15.11
2023-05-10T15:25:45.428Z,15.29
2023-05-10T15:28:11.910Z,15.49
2023-05-10T15:30:38.606Z,15.62
2023-05-10T15:33:05.196Z,15.73
2023-05-10T15:35:31.758Z,15.89
2023-05-10T15:37:58.171Z,16.06
2023-05-10T15:40:24.634Z,16.10
2023-05-10T15:42:51.188Z,16.06
2023-05-10T15:45:17.995Z,15.99
2023-05-10T15:47:45.535Z,16.04
2023-05-10T15:50:12.809Z,15.88
2023-05-10T15:52:39.456Z,15.90
2023-05-10T15:55:12.670Z,15.92
2023-05-10T15:57:40.846Z,15.93
2023-05-10T16:00:09.120Z,16.01
2023-05-10T16:02:44.358Z,16.11
2023-05-10T16:05:11.020Z,15.98
2023-05-10T16:07:37.462Z,15.96
2023-05-10T16:10:06.432Z,16.02
2023-05-10T16:12:33.134Z,16.07
2023-05-10T16:14:59.618Z,16.00
2023-05-10T16:17:26.334Z,15.82
2023-05-10T16:19:52.890Z,15.72
2023-05-10T16:22:19.439Z,15.56
2023-05-10T16:24:45.910Z,15.46
2023-05-10T16:27:13.219Z,15.54
2023-05-10T16:29:39.699Z,15.62
2023-05-10T16:32:06.386Z,15.64
2023-05-10T16:34:32.908Z,15.56
2023-05-10T16:36:59.313Z,15.61
2023-05-10T16:39:25.963Z,15.56
2023-05-10T16:41:52.413Z,15.57
2023-05-10T16:44:20.593Z,15.50
2023-05-10T16:46:47.837Z,15.44
2023-05-10T16:49:14.521Z,15.50
2023-05-10T16:51:41.182Z,15.69
2023-05-10T16:54:07.957Z,15.78
2023-05-10T16:56:34.410Z,15.92
2023-05-10T16:59:00.919Z,16.04
2023-05-10T17:01:27.706Z,16.13
2023-05-10T17:03:54.259Z,16.32
2023-05-10T17:06:20.677Z,16.31
2023-05-10T17:08:47.317Z,16.22
2023-05-10T17:11:13.774Z,16.10
2023-05-10T17:13:40.432Z,16.08
2023-05-10T17:16:08.287Z,15.96
2023-05-10T17:18:34.921Z,15.92
2023-05-10T17:21:01.543Z,15.87
2023-05-10T17:23:28.090Z,15.78
2023-05-10T17:25:54.538Z,15.65
2023-05-10T17:28:20.986Z,15.68
2023-05-10T17:30:47.574Z,15.59
2023-05-10T17:33:14.028Z,15.66
2023-05-10T17:35:40.543Z,15.75
2023-05-10T17:38:07.062Z,15.63
2023-05-10T17:40:33.534Z,15.53
2023-05-10T17:43:00.146Z,15.67
2023-05-10T17:45:26.785Z,15.74
2023-05-10T17:47:53.359Z,15.57
2023-05-10T17:50:19.917Z,15.61
2023-05-10T17:52:46.696Z,15.63
2023-05-10T17:55:13.313Z,15.67
2023-05-10T17:57:39.837Z,15.61
2023-05-10T18:00:08.733Z,15.60
2023-05-10T18:02:36.668Z,15.44
2023-05-10T18:05:04.409Z,15.40
2023-05-10T18:07:31.433Z,15.36
2023-05-10T18:09:58.393Z,15.25
2023-05-10T18:12:24.993Z,15.16
2023-05-10T18:14:51.591Z,15.19
2023-05-10T18:17:18.236Z,15.24
2023-05-10T18:19:44.673Z,15.29
2023-05-10T18:22:11.293Z,15.15
2023-05-10T18:24:39.553Z,15.15
2023-05-10T18:27:08.975Z,15.08
2023-05-10T18:29:36.605Z,15.00
2023-05-10T18:32:03.079Z,15.04
2023-05-10T18:34:29.496Z,15.12
2023-05-10T18:36:56.227Z,15.10
2023-05-10T18:39:22.771Z,15.04
2023-05-10T18:41:50.167Z,14.89
2023-05-10T18:44:16.684Z,14.89
2023-05-10T18:46:43.502Z,14.80
2023-05-10T18:49:10.055Z,14.67
2023-05-10T18:51:36.472Z,14.60
2023-05-10T18:54:02.994Z,14.62
2023-05-10T18:56:29.635Z,14.62
2023-05-10T18:58:56.510Z,14.60
2023-05-10T19:01:23.009Z,14.57
2023-05-10T19:03:49.492Z,14.49
2023-05-10T19:06:16.070Z,14.35
2023-05-10T19:08:42.618Z,14.29
2023-05-10T19:11:09.142Z,14.21
2023-05-10T19:13:35.770Z,14.12
2023-05-10T19:16:10.093Z,14.07
2023-05-10T19:18:36.651Z,13.99
2023-05-10T19:21:05.664Z,13.94
2023-05-10T19:23:33.117Z,13.95
2023-05-10T19:26:00.008Z,13.86
2023-05-10T19:28:26.810Z,13.82
2023-05-10T19:30:53.458Z,13.82
2023-05-10T19:33:20.002Z,13.79
2023-05-10T19:35:46.730Z,13.75
2023-05-10T19:38:13.206Z,13.70
2023-05-10T19:40:39.632Z,13.64
2023-05-10T19:43:06.077Z,13.60
2023-05-10T19:45:37.189Z,13.56
2023-05-10T19:48:03.901Z,13.55
2023-05-10T19:50:30.473Z,13.51
2023-05-10T19:52:58.369Z,13.45
2023-05-10T19:55:32.032Z,13.35
2023-05-10T19:58:00.652Z,13.28
2023-05-10T20:00:27.648Z,13.21
2023-05-10T20:02:54.645Z,13.23
2023-05-10T20:05:21.950Z,13.20
2023-05-10T20:07:48.829Z,13.20
2023-05-10T20:10:16.634Z,13.16
2023-05-10T20:12:54.127Z,13.11
2023-05-10T20:15:22.917Z,13.07
2023-05-10T20:17:52.945Z,13.03
2023-05-10T20:20:20.744Z,13.02
2023-05-10T20:22:48.382Z,13.04
2023-05-10T20:25:15.883Z,13.05
2023-05-10T20:27:42.753Z,13.02
2023-05-10T20:30:10.269Z,12.99
2023-05-10T20:32:37.479Z,13.00
2023-05-10T20:35:04.793Z,12.98
2023-05-10T20:37:31.615Z,12.94
2023-05-10T20:39:58.231Z,12.90
2023-05-10T20:42:25.885Z,12.89
2023-05-10T20:44:52.397Z,12.90
2023-05-10T20:47:19.157Z,12.91
2023-05-10T20:49:46.019Z,12.94
2023-05-10T20:52:12.626Z,12.95
2023-05-10T20:54:39.077Z,12.96
2023-05-10T20:57:05.718Z,12.97
2023-05-10T20:59:32.289Z,13.00
2023-05-10T21:01:58.979Z,13.01
2023-05-10T21:04:25.843Z,13.05
2023-05-10T21:06:53.228Z,13.10
2023-05-10T21:09:19.759Z,13.14
2023-05-10T21:11:46.418Z,13.12
2023-05-10T21:14:12.993Z,13.13
2023-05-10T21:16:39.504Z,13.15
2023-05-10T21:19:07.393Z,13.17
2023-05-10T21:21:34.521Z,13.16
2023-05-10T21:24:01.210Z,13.13
2023-05-10T21:26:27.678Z,13.13
2023-05-10T21:28:54.253Z,13.14
2023-05-10T21:31:20.713Z,13.08
2023-05-10T21:33:47.426Z,13.07
2023-05-10T21:36:13.984Z,13.06
2023-05-10T21:38:40.989Z,13.05
2023-05-10T21:41:08.061Z,13.03
2023-05-10T21:43:34.612Z,13.04
2023-05-10T21:46:01.437Z,13.02
2023-05-10T21:48:28.049Z,12.99
2023-05-10T21:50:54.588Z,12.90
2023-05-10T21:53:22.146Z,12.87
2023-05-10T21:55:48.621Z,12.84
2023-05-10T21:58:15.173Z,12.82
2023-05-10T22:00:41.600Z,12.77
2023-05-10T22:03:08.220Z,12.77
2023-05-10T22:05:34.903Z,12.75
2023-05-10T22:08:01.394Z,12.73
2023-05-10T22:10:27.918Z,12.72
2023-05-10T22:12:54.410Z,12.68
2023-05-10T22:15:20.899Z,12.65
2023-05-10T22:17:47.491Z,12.66
2023-05-10T22:20:14.186Z,12.68
2023-05-10T22:22:40.675Z,12.73
2023-05-10T22:25:07.770Z,12.75
2023-05-10T22:27:34.592Z,12.75
2023-05-10T22:30:01.396Z,12.74
2023-05-10T22:32:28.067Z,12.74
2023-05-10T22:34:54.599Z,12.73
2023-05-10T22:37:21.084Z,12.75
2023-05-10T22:39:48.514Z,12.74
2023-05-10T22:42:15.003Z,12.74
2023-05-10T22:44:41.968Z,12.74
2023-05-10T22:47:08.998Z,12.76
2023-05-10T22:49:35.519Z,12.76
2023-05-10T22:52:02.334Z,12.77
2023-05-10T22:54:28.815Z,12.75
2023-05-10T22:56:56.399Z,12.70
2023-05-10T22:59:23.054Z,12.68
2023-05-10T23:01:49.570Z,12.69
2023-05-10T23:04:16.312Z,12.69
2023-05-10T23:06:42.809Z,12.65
2023-05-10T23:09:09.791Z,12.63
2023-05-10T23:11:36.553Z,12.62
2023-05-10T23:14:03.291Z,12.64
2023-05-10T23:16:30.466Z,12.60
2023-05-10T23:18:57.024Z,12.59
2023-05-10T23:21:25.059Z,12.59
2023-05-10T23:23:51.508Z,12.60
2023-05-10T23:26:17.998Z,12.59
2023-05-10T23:28:44.473Z,12.60
2023-05-10T23:31:10.997Z,12.62
2023-05-10T23:33:37.630Z,12.62
2023-05-10T23:36:04.193Z,12.63
2023-05-10T23:38:30.676Z,12.61
2023-05-10T23:40:57.234Z,12.55
2023-05-10T23:43:25.210Z,12.53
2023-05-10T23:45:56.455Z,12.56
2023-05-10T23:48:23.414Z,12.58
2023-05-10T23:50:49.981Z,12.58
2023-05-10T23:53:16.862Z,12.55
2023-05-10T23:55:43.511Z,12.53
2023-05-10T23:58:10.055Z,12.52
